sensor_id;sensor_type;location;lat;lon;timestamp;P1;durP1;ratioP1;P2;durP2;ratioP2
9330;SDS011;4704;50.470;12.072;2023-05-16T00:01:42;2.10;;;2.00;;
9330;SDS011;4704;50.470;12.072;2023-05-16T00:04:10;1.90;;;1.80;;
9330;SDS011;4704;50.470;12.072;2023-05-16T00:06:38;1.98;;;1.88;;
9330;SDS011;4704;50.470;12.072;2023-05-16T00:09:05;2.10;;;2.00;;
9330;SDS011;4704;50.470;12.072;2023-05-16T00:11:33;2.00;;;1.80;;
9330;SDS011;4704;50.470;12.072;2023-05-16T00:14:00;1.65;;;1.55;;
9330;SDS011;4704;50.470;12.072;2023-05-16T00:16:28;1.80;;;1.70;;
9330;SDS011;4704;50.470;12.072;2023-05-16T00:18:55;1.65;;;1.55;;
9330;SDS011;4704;50.470;12.072;2023-05-16T00:21:26;2.15;;;1.77;;
9330;SDS011;4704;50.470;12.072;2023-05-16T00:23:54;2.00;;;1.90;;
9330;SDS011;4704;50.470;12.072;2023-05-16T00:26:21;1.92;;;1.80;;
9330;SDS011;4704;50.470;12.072;2023-05-16T00:28:48;1.85;;;1.75;;
9330;SDS011;4704;50.470;12.072;2023-05-16T00:31:16;1.80;;;1.70;;
9330;SDS011;4704;50.470;12.072;2023-05-16T00:33:43;1.75;;;1.65;;
9330;SDS011;4704;50.470;12.072;2023-05-16T00:36:10;1.70;;;1.60;;
9330;SDS011;4704;50.470;12.072;2023-05-16T00:38:39;1.90;;;1.80;;
9330;SDS011;4704;50.470;12.072;2023-05-16T00:41:07;1.63;;;1.50;;
9330;SDS011;4704;50.470;12.072;2023-05-16T00:43:34;1.85;;;1.75;;
9330;SDS011;4704;50.470;12.072;2023-05-16T00:46:03;1.70;;;1.60;;
9330;SDS011;4704;50.470;12.072;2023-05-16T00:48:31;1.80;;;1.70;;
9330;SDS011;4704;50.470;12.072;2023-05-16T00:50:58;1.90;;;1.80;;
9330;SDS011;4704;50.470;12.072;2023-05-16T00:53:27;1.70;;;1.60;;
9330;SDS011;4704;50.470;12.072;2023-05-16T00:55:56;1.90;;;1.80;;
9330;SDS011;4704;50.470;12.072;2023-05-16T00:58:24;1.52;;;1.42;;
9330;SDS011;4704;50.470;12.072;2023-05-16T01:00:51;1.80;;;1.70;;
9330;SDS011;4704;50.470;12.072;2023-05-16T01:03:18;1.63;;;1.52;;
9330;SDS011;4704;50.470;12.072;2023-05-16T01:05:46;1.80;;;1.70;;
9330;SDS011;4704;50.470;12.072;2023-05-16T01:08:14;1.75;;;1.65;;
9330;SDS011;4704;50.470;12.072;2023-05-16T01:10:43;1.55;;;1.45;;
9330;SDS011;4704;50.470;12.072;2023-05-16T01:13:20;1.60;;;1.50;;
9330;SDS011;4704;50.470;12.072;2023-05-16T01:15:49;1.65;;;1.55;;
9330;SDS011;4704;50.470;12.072;2023-05-16T01:18:22;1.80;;;1.70;;
9330;SDS011;4704;50.470;12.072;2023-05-16T01:20:53;1.60;;;1.50;;
9330;SDS011;4704;50.470;12.072;2023-05-16T01:23:32;1.73;;;1.63;;
9330;SDS011;4704;50.470;12.072;2023-05-16T01:26:13;1.70;;;1.60;;
9330;SDS011;4704;50.470;12.072;2023-05-16T01:28:42;1.65;;;1.55;;
9330;SDS011;4704;50.470;12.072;2023-05-16T01:31:10;1.73;;;1.63;;
9330;SDS011;4704;50.470;12.072;2023-05-16T01:33:38;1.88;;;1.77;;
9330;SDS011;4704;50.470;12.072;2023-05-16T01:36:07;1.80;;;1.70;;
9330;SDS011;4704;50.470;12.072;2023-05-16T01:38:38;1.70;;;1.60;;
9330;SDS011;4704;50.470;12.072;2023-05-16T01:41:08;1.52;;;1.42;;
9330;SDS011;4704;50.470;12.072;2023-05-16T01:43:41;1.80;;;1.70;;
9330;SDS011;4704;50.470;12.072;2023-05-16T01:46:10;1.70;;;1.60;;
9330;SDS011;4704;50.470;12.072;2023-05-16T01:48:42;1.70;;;1.60;;
9330;SDS011;4704;50.470;12.072;2023-05-16T01:51:10;1.77;;;1.67;;
9330;SDS011;4704;50.470;12.072;2023-05-16T01:53:38;1.80;;;1.70;;
9330;SDS011;4704;50.470;12.072;2023-05-16T01:56:10;1.60;;;1.50;;
9330;SDS011;4704;50.470;12.072;2023-05-16T01:58:42;1.80;;;1.70;;
9330;SDS011;4704;50.470;12.072;2023-05-16T02:01:11;1.60;;;1.50;;
9330;SDS011;4704;50.470;12.072;2023-05-16T02:03:39;1.63;;;1.52;;
9330;SDS011;4704;50.470;12.072;2023-05-16T02:06:06;1.50;;;1.40;;
9330;SDS011;4704;50.470;12.072;2023-05-16T02:08:33;1.60;;;1.50;;
9330;SDS011;4704;50.470;12.072;2023-05-16T02:11:01;1.73;;;1.63;;
9330;SDS011;4704;50.470;12.072;2023-05-16T02:13:28;1.75;;;1.65;;
9330;SDS011;4704;50.470;12.072;2023-05-16T02:15:57;1.73;;;1.63;;
9330;SDS011;4704;50.470;12.072;2023-05-16T02:18:25;1.50;;;1.40;;
9330;SDS011;4704;50.470;12.072;2023-05-16T02:20:52;1.63;;;1.52;;
9330;SDS011;4704;50.470;12.072;2023-05-16T02:23:19;1.80;;;1.70;;
9330;SDS011;4704;50.470;12.072;2023-05-16T02:25:47;1.90;;;1.80;;
9330;SDS011;4704;50.470;12.072;2023-05-16T02:28:15;1.60;;;1.50;;
9330;SDS011;4704;50.470;12.072;2023-05-16T02:30:42;1.65;;;1.55;;
9330;SDS011;4704;50.470;12.072;2023-05-16T02:33:11;1.70;;;1.60;;
9330;SDS011;4704;50.470;12.072;2023-05-16T02:35:38;1.80;;;1.70;;
9330;SDS011;4704;50.470;12.072;2023-05-16T02:38:05;1.70;;;1.60;;
9330;SDS011;4704;50.470;12.072;2023-05-16T02:40:34;1.60;;;1.50;;
9330;SDS011;4704;50.470;12.072;2023-05-16T02:43:01;1.70;;;1.60;;
9330;SDS011;4704;50.470;12.072;2023-05-16T02:45:28;1.42;;;1.33;;
9330;SDS011;4704;50.470;12.072;2023-05-16T02:47:56;1.52;;;1.42;;
9330;SDS011;4704;50.470;12.072;2023-05-16T02:50:24;1.80;;;1.70;;
9330;SDS011;4704;50.470;12.072;2023-05-16T02:52:52;1.58;;;1.50;;
9330;SDS011;4704;50.470;12.072;2023-05-16T02:55:19;1.77;;;1.50;;
9330;SDS011;4704;50.470;12.072;2023-05-16T02:57:47;1.73;;;1.63;;
9330;SDS011;4704;50.470;12.072;2023-05-16T03:00:15;1.77;;;1.67;;
9330;SDS011;4704;50.470;12.072;2023-05-16T03:02:42;1.58;;;1.48;;
9330;SDS011;4704;50.470;12.072;2023-05-16T03:05:10;1.52;;;1.42;;
9330;SDS011;4704;50.470;12.072;2023-05-16T03:07:40;1.60;;;1.50;;
9330;SDS011;4704;50.470;12.072;2023-05-16T03:10:08;1.50;;;1.40;;
9330;SDS011;4704;50.470;12.072;2023-05-16T03:12:35;1.60;;;1.50;;
9330;SDS011;4704;50.470;12.072;2023-05-16T03:15:03;1.65;;;1.55;;
9330;SDS011;4704;50.470;12.072;2023-05-16T03:17:30;1.60;;;1.50;;
9330;SDS011;4704;50.470;12.072;2023-05-16T03:19:57;1.75;;;1.65;;
9330;SDS011;4704;50.470;12.072;2023-05-16T03:22:25;1.75;;;1.65;;
9330;SDS011;4704;50.470;12.072;2023-05-16T03:24:54;1.88;;;1.77;;
9330;SDS011;4704;50.470;12.072;2023-05-16T03:27:21;1.58;;;1.48;;
9330;SDS011;4704;50.470;12.072;2023-05-16T03:29:48;1.63;;;1.52;;
9330;SDS011;4704;50.470;12.072;2023-05-16T03:32:16;1.75;;;1.65;;
9330;SDS011;4704;50.470;12.072;2023-05-16T03:34:43;1.70;;;1.60;;
9330;SDS011;4704;50.470;12.072;2023-05-16T03:37:11;1.90;;;1.80;;
9330;SDS011;4704;50.470;12.072;2023-05-16T03:39:40;1.80;;;1.70;;
9330;SDS011;4704;50.470;12.072;2023-05-16T03:42:09;1.63;;;1.52;;
9330;SDS011;4704;50.470;12.072;2023-05-16T03:44:36;1.80;;;1.70;;
9330;SDS011;4704;50.470;12.072;2023-05-16T03:47:03;1.55;;;1.45;;
9330;SDS011;4704;50.470;12.072;2023-05-16T03:49:31;1.90;;;1.80;;
9330;SDS011;4704;50.470;12.072;2023-05-16T03:51:59;1.80;;;1.70;;
9330;SDS011;4704;50.470;12.072;2023-05-16T03:54:26;1.70;;;1.60;;
9330;SDS011;4704;50.470;12.072;2023-05-16T03:56:53;1.70;;;1.60;;
9330;SDS011;4704;50.470;12.072;2023-05-16T03:59:22;1.70;;;1.60;;
9330;SDS011;4704;50.470;12.072;2023-05-16T04:01:49;1.67;;;1.58;;
9330;SDS011;4704;50.470;12.072;2023-05-16T04:04:17;1.80;;;1.70;;
9330;SDS011;4704;50.470;12.072;2023-05-16T04:06:45;1.67;;;1.58;;
9330;SDS011;4704;50.470;12.072;2023-05-16T04:09:12;1.70;;;1.60;;
9330;SDS011;4704;50.470;12.072;2023-05-16T04:11:39;1.70;;;1.60;;
9330;SDS011;4704;50.470;12.072;2023-05-16T04:14:07;1.63;;;1.52;;
9330;SDS011;4704;50.470;12.072;2023-05-16T04:16:36;1.60;;;1.50;;
9330;SDS011;4704;50.470;12.072;2023-05-16T04:19:03;1.92;;;1.83;;
9330;SDS011;4704;50.470;12.072;2023-05-16T04:21:31;1.70;;;1.60;;
9330;SDS011;4704;50.470;12.072;2023-05-16T04:23:59;1.63;;;1.52;;
9330;SDS011;4704;50.470;12.072;2023-05-16T04:26:27;1.83;;;1.73;;
9330;SDS011;4704;50.470;12.072;2023-05-16T04:28:54;1.65;;;1.55;;
9330;SDS011;4704;50.470;12.072;2023-05-16T04:31:23;1.70;;;1.60;;
9330;SDS011;4704;50.470;12.072;2023-05-16T04:33:52;1.83;;;1.73;;
9330;SDS011;4704;50.470;12.072;2023-05-16T04:36:20;2.00;;;1.75;;
9330;SDS011;4704;50.470;12.072;2023-05-16T04:38:47;1.70;;;1.60;;
9330;SDS011;4704;50.470;12.072;2023-05-16T04:41:15;2.00;;;1.90;;
9330;SDS011;4704;50.470;12.072;2023-05-16T04:43:42;1.70;;;1.60;;
9330;SDS011;4704;50.470;12.072;2023-05-16T04:46:10;1.88;;;1.77;;
9330;SDS011;4704;50.470;12.072;2023-05-16T04:48:37;1.60;;;1.50;;
9330;SDS011;4704;50.470;12.072;2023-05-16T04:51:06;1.60;;;1.50;;
9330;SDS011;4704;50.470;12.072;2023-05-16T04:53:33;1.70;;;1.60;;
9330;SDS011;4704;50.470;12.072;2023-05-16T04:56:01;1.90;;;1.80;;
9330;SDS011;4704;50.470;12.072;2023-05-16T04:58:29;1.80;;;1.70;;
9330;SDS011;4704;50.470;12.072;2023-05-16T05:00:57;2.13;;;1.85;;
9330;SDS011;4704;50.470;12.072;2023-05-16T05:03:24;1.70;;;1.60;;
9330;SDS011;4704;50.470;12.072;2023-05-16T05:05:52;1.80;;;1.70;;
9330;SDS011;4704;50.470;12.072;2023-05-16T05:08:21;1.90;;;1.80;;
9330;SDS011;4704;50.470;12.072;2023-05-16T05:10:48;1.90;;;1.80;;
9330;SDS011;4704;50.470;12.072;2023-05-16T05:13:16;1.90;;;1.80;;
9330;SDS011;4704;50.470;12.072;2023-05-16T05:15:43;1.83;;;1.73;;
9330;SDS011;4704;50.470;12.072;2023-05-16T05:18:11;1.70;;;1.60;;
9330;SDS011;4704;50.470;12.072;2023-05-16T05:20:38;1.80;;;1.70;;
9330;SDS011;4704;50.470;12.072;2023-05-16T05:23:05;1.77;;;1.67;;
9330;SDS011;4704;50.470;12.072;2023-05-16T05:25:35;1.98;;;1.88;;
9330;SDS011;4704;50.470;12.072;2023-05-16T05:28:02;1.80;;;1.70;;
9330;SDS011;4704;50.470;12.072;2023-05-16T05:30:30;2.28;;;1.60;;
9330;SDS011;4704;50.470;12.072;2023-05-16T05:32:57;1.83;;;1.73;;
9330;SDS011;4704;50.470;12.072;2023-05-16T05:35:24;1.90;;;1.80;;
9330;SDS011;4704;50.470;12.072;2023-05-16T05:37:52;1.90;;;1.80;;
9330;SDS011;4704;50.470;12.072;2023-05-16T05:40:20;1.83;;;1.73;;
9330;SDS011;4704;50.470;12.072;2023-05-16T05:42:48;1.95;;;1.85;;
9330;SDS011;4704;50.470;12.072;2023-05-16T05:45:16;1.80;;;1.70;;
9330;SDS011;4704;50.470;12.072;2023-05-16T05:47:43;1.90;;;1.80;;
9330;SDS011;4704;50.470;12.072;2023-05-16T05:50:10;2.22;;;1.95;;
9330;SDS011;4704;50.470;12.072;2023-05-16T05:52:39;1.88;;;1.77;;
9330;SDS011;4704;50.470;12.072;2023-05-16T05:55:06;1.90;;;1.80;;
9330;SDS011;4704;50.470;12.072;2023-05-16T05:57:34;1.95;;;1.85;;
9330;SDS011;4704;50.470;12.072;2023-05-16T06:00:03;2.03;;;1.92;;
9330;SDS011;4704;50.470;12.072;2023-05-16T06:02:31;1.80;;;1.70;;
9330;SDS011;4704;50.470;12.072;2023-05-16T06:04:58;1.90;;;1.80;;
9330;SDS011;4704;50.470;12.072;2023-05-16T06:07:26;1.80;;;1.70;;
9330;SDS011;4704;50.470;12.072;2023-05-16T06:09:53;1.98;;;1.85;;
9330;SDS011;4704;50.470;12.072;2023-05-16T06:12:21;1.80;;;1.70;;
9330;SDS011;4704;50.470;12.072;2023-05-16T06:14:48;1.77;;;1.67;;
9330;SDS011;4704;50.470;12.072;2023-05-16T06:17:17;1.90;;;1.80;;
9330;SDS011;4704;50.470;12.072;2023-05-16T06:19:44;2.65;;;1.70;;
9330;SDS011;4704;50.470;12.072;2023-05-16T06:22:12;1.90;;;1.70;;
9330;SDS011;4704;50.470;12.072;2023-05-16T06:24:39;1.70;;;1.60;;
9330;SDS011;4704;50.470;12.072;2023-05-16T06:27:07;1.90;;;1.80;;
9330;SDS011;4704;50.470;12.072;2023-05-16T06:29:34;2.22;;;2.03;;
9330;SDS011;4704;50.470;12.072;2023-05-16T06:32:02;2.20;;;2.03;;
9330;SDS011;4704;50.470;12.072;2023-05-16T06:34:31;1.77;;;1.65;;
9330;SDS011;4704;50.470;12.072;2023-05-16T06:36:58;2.00;;;1.90;;
9330;SDS011;4704;50.470;12.072;2023-05-16T06:39:27;1.90;;;1.80;;
9330;SDS011;4704;50.470;12.072;2023-05-16T06:41:55;2.00;;;1.90;;
9330;SDS011;4704;50.470;12.072;2023-05-16T06:44:22;2.20;;;2.10;;
9330;SDS011;4704;50.470;12.072;2023-05-16T06:46:50;2.13;;;1.90;;
9330;SDS011;4704;50.470;12.072;2023-05-16T06:49:18;1.90;;;1.80;;
9330;SDS011;4704;50.470;12.072;2023-05-16T06:51:47;1.95;;;1.85;;
9330;SDS011;4704;50.470;12.072;2023-05-16T06:54:14;1.95;;;1.85;;
9330;SDS011;4704;50.470;12.072;2023-05-16T06:56:41;2.22;;;2.13;;
9330;SDS011;4704;50.470;12.072;2023-05-16T06:59:09;2.42;;;2.22;;
9330;SDS011;4704;50.470;12.072;2023-05-16T07:01:36;2.10;;;2.00;;
9330;SDS011;4704;50.470;12.072;2023-05-16T07:04:04;2.03;;;1.92;;
9330;SDS011;4704;50.470;12.072;2023-05-16T07:06:31;2.00;;;1.90;;
9330;SDS011;4704;50.470;12.072;2023-05-16T07:09:00;1.75;;;1.65;;
9330;SDS011;4704;50.470;12.072;2023-05-16T07:11:27;2.30;;;2.13;;
9330;SDS011;4704;50.470;12.072;2023-05-16T07:13:54;2.30;;;2.10;;
9330;SDS011;4704;50.470;12.072;2023-05-16T07:16:22;2.00;;;1.90;;
9330;SDS011;4704;50.470;12.072;2023-05-16T07:18:52;2.20;;;2.00;;
9330;SDS011;4704;50.470;12.072;2023-05-16T07:21:20;1.83;;;1.73;;
9330;SDS011;4704;50.470;12.072;2023-05-16T07:23:47;2.05;;;1.95;;
9330;SDS011;4704;50.470;12.072;2023-05-16T07:26:16;2.13;;;2.03;;
9330;SDS011;4704;50.470;12.072;2023-05-16T07:28:46;1.98;;;1.88;;
9330;SDS011;4704;50.470;12.072;2023-05-16T07:31:14;1.77;;;1.67;;
9330;SDS011;4704;50.470;12.072;2023-05-16T07:33:42;1.92;;;1.83;;
9330;SDS011;4704;50.470;12.072;2023-05-16T07:36:10;2.30;;;2.10;;
9330;SDS011;4704;50.470;12.072;2023-05-16T07:38:38;1.90;;;1.80;;
9330;SDS011;4704;50.470;12.072;2023-05-16T07:41:05;2.00;;;1.90;;
9330;SDS011;4704;50.470;12.072;2023-05-16T07:43:34;2.22;;;2.13;;
9330;SDS011;4704;50.470;12.072;2023-05-16T07:46:02;1.90;;;1.80;;
9330;SDS011;4704;50.470;12.072;2023-05-16T07:48:29;2.03;;;1.92;;
9330;SDS011;4704;50.470;12.072;2023-05-16T07:50:57;2.00;;;1.90;;
9330;SDS011;4704;50.470;12.072;2023-05-16T07:53:24;2.10;;;2.00;;
9330;SDS011;4704;50.470;12.072;2023-05-16T07:55:51;1.80;;;1.70;;
9330;SDS011;4704;50.470;12.072;2023-05-16T07:58:19;2.08;;;1.98;;
9330;SDS011;4704;50.470;12.072;2023-05-16T08:00:49;2.20;;;2.10;;
9330;SDS011;4704;50.470;12.072;2023-05-16T08:03:16;1.90;;;1.80;;
9330;SDS011;4704;50.470;12.072;2023-05-16T08:05:43;1.90;;;1.80;;
9330;SDS011;4704;50.470;12.072;2023-05-16T08:08:12;2.05;;;1.95;;
9330;SDS011;4704;50.470;12.072;2023-05-16T08:10:40;2.13;;;2.03;;
9330;SDS011;4704;50.470;12.072;2023-05-16T08:13:07;2.05;;;1.90;;
9330;SDS011;4704;50.470;12.072;2023-05-16T08:15:35;1.98;;;1.88;;
9330;SDS011;4704;50.470;12.072;2023-05-16T08:18:05;2.10;;;2.00;;
9330;SDS011;4704;50.470;12.072;2023-05-16T08:20:38;2.10;;;1.90;;
9330;SDS011;4704;50.470;12.072;2023-05-16T08:23:05;2.33;;;2.13;;
9330;SDS011;4704;50.470;12.072;2023-05-16T08:25:33;2.25;;;2.15;;
9330;SDS011;4704;50.470;12.072;2023-05-16T08:28:01;1.90;;;1.80;;
9330;SDS011;4704;50.470;12.072;2023-05-16T08:30:28;1.80;;;1.70;;
9330;SDS011;4704;50.470;12.072;2023-05-16T08:32:56;1.90;;;1.80;;
9330;SDS011;4704;50.470;12.072;2023-05-16T08:35:24;2.08;;;1.98;;
9330;SDS011;4704;50.470;12.072;2023-05-16T08:37:52;2.13;;;2.03;;
9330;SDS011;4704;50.470;12.072;2023-05-16T08:40:19;2.10;;;2.00;;
9330;SDS011;4704;50.470;12.072;2023-05-16T08:42:48;1.85;;;1.75;;
9330;SDS011;4704;50.470;12.072;2023-05-16T08:45:15;1.85;;;1.75;;
9330;SDS011;4704;50.470;12.072;2023-05-16T08:47:43;2.00;;;1.90;;
9330;SDS011;4704;50.470;12.072;2023-05-16T08:50:11;2.00;;;1.90;;
9330;SDS011;4704;50.470;12.072;2023-05-16T08:52:40;1.95;;;1.85;;
9330;SDS011;4704;50.470;12.072;2023-05-16T08:55:09;1.90;;;1.80;;
9330;SDS011;4704;50.470;12.072;2023-05-16T08:57:37;1.83;;;1.73;;
9330;SDS011;4704;50.470;12.072;2023-05-16T09:00:05;2.00;;;1.90;;
9330;SDS011;4704;50.470;12.072;2023-05-16T09:02:36;1.88;;;1.77;;
9330;SDS011;4704;50.470;12.072;2023-05-16T09:05:04;1.95;;;1.85;;
9330;SDS011;4704;50.470;12.072;2023-05-16T09:07:31;2.08;;;1.98;;
9330;SDS011;4704;50.470;12.072;2023-05-16T09:10:00;2.05;;;1.95;;
9330;SDS011;4704;50.470;12.072;2023-05-16T09:12:27;1.90;;;1.80;;
9330;SDS011;4704;50.470;12.072;2023-05-16T09:14:55;2.13;;;2.03;;
9330;SDS011;4704;50.470;12.072;2023-05-16T09:17:22;2.00;;;1.90;;
9330;SDS011;4704;50.470;12.072;2023-05-16T09:19:51;2.03;;;1.92;;
9330;SDS011;4704;50.470;12.072;2023-05-16T09:22:22;1.95;;;1.85;;
9330;SDS011;4704;50.470;12.072;2023-05-16T09:24:49;2.00;;;1.90;;
9330;SDS011;4704;50.470;12.072;2023-05-16T09:27:18;3.17;;;2.13;;
9330;SDS011;4704;50.470;12.072;2023-05-16T09:29:49;1.92;;;1.83;;
9330;SDS011;4704;50.470;12.072;2023-05-16T09:32:18;2.03;;;1.92;;
9330;SDS011;4704;50.470;12.072;2023-05-16T09:34:45;2.25;;;2.05;;
9330;SDS011;4704;50.470;12.072;2023-05-16T09:37:13;2.05;;;1.95;;
9330;SDS011;4704;50.470;12.072;2023-05-16T09:39:48;2.13;;;1.90;;
9330;SDS011;4704;50.470;12.072;2023-05-16T09:42:16;2.00;;;1.90;;
9330;SDS011;4704;50.470;12.072;2023-05-16T09:44:47;2.00;;;1.90;;
9330;SDS011;4704;50.470;12.072;2023-05-16T09:47:15;1.92;;;1.83;;
9330;SDS011;4704;50.470;12.072;2023-05-16T09:49:43;2.72;;;2.00;;
9330;SDS011;4704;50.470;12.072;2023-05-16T09:52:10;4.60;;;2.10;;
9330;SDS011;4704;50.470;12.072;2023-05-16T09:54:37;2.10;;;2.00;;
9330;SDS011;4704;50.470;12.072;2023-05-16T09:57:05;2.10;;;2.00;;
9330;SDS011;4704;50.470;12.072;2023-05-16T09:59:34;1.95;;;1.85;;
9330;SDS011;4704;50.470;12.072;2023-05-16T10:02:03;2.15;;;2.05;;
9330;SDS011;4704;50.470;12.072;2023-05-16T10:04:32;2.30;;;2.08;;
9330;SDS011;4704;50.470;12.072;2023-05-16T10:07:00;2.25;;;2.15;;
9330;SDS011;4704;50.470;12.072;2023-05-16T10:09:29;2.00;;;1.90;;
9330;SDS011;4704;50.470;12.072;2023-05-16T10:11:59;2.28;;;2.08;;
9330;SDS011;4704;50.470;12.072;2023-05-16T10:14:29;2.20;;;2.10;;
9330;SDS011;4704;50.470;12.072;2023-05-16T10:16:56;1.98;;;1.88;;
9330;SDS011;4704;50.470;12.072;2023-05-16T10:19:25;2.53;;;1.98;;
9330;SDS011;4704;50.470;12.072;2023-05-16T10:21:53;2.13;;;2.00;;
9330;SDS011;4704;50.470;12.072;2023-05-16T10:24:25;2.10;;;2.00;;
9330;SDS011;4704;50.470;12.072;2023-05-16T10:26:55;2.50;;;2.30;;
9330;SDS011;4704;50.470;12.072;2023-05-16T10:29:22;2.20;;;2.00;;
9330;SDS011;4704;50.470;12.072;2023-05-16T10:31:50;2.40;;;1.90;;
9330;SDS011;4704;50.470;12.072;2023-05-16T10:34:18;2.85;;;1.95;;
9330;SDS011;4704;50.470;12.072;2023-05-16T10:36:47;2.28;;;1.90;;
9330;SDS011;4704;50.470;12.072;2023-05-16T10:39:15;2.42;;;2.20;;
9330;SDS011;4704;50.470;12.072;2023-05-16T10:41:43;2.17;;;2.08;;
9330;SDS011;4704;50.470;12.072;2023-05-16T10:44:12;2.58;;;2.25;;
9330;SDS011;4704;50.470;12.072;2023-05-16T10:46:40;2.22;;;2.03;;
9330;SDS011;4704;50.470;12.072;2023-05-16T10:49:20;3.17;;;2.30;;
9330;SDS011;4704;50.470;12.072;2023-05-16T10:52:01;2.30;;;2.10;;
9330;SDS011;4704;50.470;12.072;2023-05-16T10:54:33;2.40;;;2.30;;
9330;SDS011;4704;50.470;12.072;2023-05-16T10:57:03;2.28;;;2.17;;
9330;SDS011;4704;50.470;12.072;2023-05-16T10:59:31;2.53;;;2.15;;
9330;SDS011;4704;50.470;12.072;2023-05-16T11:02:06;2.83;;;2.50;;
9330;SDS011;4704;50.470;12.072;2023-05-16T11:04:50;2.47;;;2.28;;
9330;SDS011;4704;50.470;12.072;2023-05-16T11:07:20;2.40;;;2.20;;
9330;SDS011;4704;50.470;12.072;2023-05-16T11:10:04;2.42;;;2.22;;
9330;SDS011;4704;50.470;12.072;2023-05-16T11:12:41;2.60;;;2.40;;
9330;SDS011;4704;50.470;12.072;2023-05-16T11:15:17;2.65;;;2.45;;
9330;SDS011;4704;50.470;12.072;2023-05-16T11:17:44;2.88;;;2.33;;
9330;SDS011;4704;50.470;12.072;2023-05-16T11:20:24;2.22;;;2.10;;
9330;SDS011;4704;50.470;12.072;2023-05-16T11:22:55;2.60;;;2.40;;
9330;SDS011;4704;50.470;12.072;2023-05-16T11:25:40;2.70;;;2.50;;
9330;SDS011;4704;50.470;12.072;2023-05-16T11:28:09;2.28;;;2.17;;
9330;SDS011;4704;50.470;12.072;2023-05-16T11:30:41;2.67;;;2.47;;
9330;SDS011;4704;50.470;12.072;2023-05-16T11:33:09;2.30;;;2.10;;
9330;SDS011;4704;50.470;12.072;2023-05-16T11:35:38;2.40;;;2.20;;
9330;SDS011;4704;50.470;12.072;2023-05-16T11:38:12;2.60;;;2.40;;
9330;SDS011;4704;50.470;12.072;2023-05-16T11:40:43;2.50;;;2.30;;
9330;SDS011;4704;50.470;12.072;2023-05-16T11:43:16;2.70;;;2.47;;
9330;SDS011;4704;50.470;12.072;2023-05-16T11:45:44;2.88;;;2.67;;
9330;SDS011;4704;50.470;12.072;2023-05-16T11:48:12;2.63;;;2.42;;
9330;SDS011;4704;50.470;12.072;2023-05-16T11:50:39;2.85;;;2.63;;
9330;SDS011;4704;50.470;12.072;2023-05-16T11:53:07;2.33;;;2.20;;
9330;SDS011;4704;50.470;12.072;2023-05-16T11:55:35;2.60;;;2.40;;
9330;SDS011;4704;50.470;12.072;2023-05-16T11:58:03;2.35;;;2.15;;
9330;SDS011;4704;50.470;12.072;2023-05-16T12:00:30;2.65;;;2.45;;
9330;SDS011;4704;50.470;12.072;2023-05-16T12:02:59;2.60;;;2.40;;
9330;SDS011;4704;50.470;12.072;2023-05-16T12:05:28;2.45;;;2.25;;
9330;SDS011;4704;50.470;12.072;2023-05-16T12:07:56;2.20;;;2.00;;
9330;SDS011;4704;50.470;12.072;2023-05-16T12:10:24;2.25;;;2.08;;
9330;SDS011;4704;50.470;12.072;2023-05-16T12:12:53;2.03;;;1.92;;
9330;SDS011;4704;50.470;12.072;2023-05-16T12:15:20;2.20;;;2.08;;
9330;SDS011;4704;50.470;12.072;2023-05-16T12:17:48;2.30;;;2.10;;
9330;SDS011;4704;50.470;12.072;2023-05-16T12:20:16;2.00;;;1.90;;
9330;SDS011;4704;50.470;12.072;2023-05-16T12:22:44;2.40;;;2.20;;
9330;SDS011;4704;50.470;12.072;2023-05-16T12:25:21;2.35;;;2.20;;
9330;SDS011;4704;50.470;12.072;2023-05-16T12:27:48;2.22;;;2.13;;
9330;SDS011;4704;50.470;12.072;2023-05-16T12:30:18;2.50;;;2.30;;
9330;SDS011;4704;50.470;12.072;2023-05-16T12:32:51;2.08;;;1.92;;
9330;SDS011;4704;50.470;12.072;2023-05-16T12:35:18;2.33;;;2.15;;
9330;SDS011;4704;50.470;12.072;2023-05-16T12:37:45;2.25;;;2.15;;
9330;SDS011;4704;50.470;12.072;2023-05-16T12:40:13;2.05;;;1.95;;
9330;SDS011;4704;50.470;12.072;2023-05-16T12:42:42;2.40;;;2.20;;
9330;SDS011;4704;50.470;12.072;2023-05-16T12:45:13;2.50;;;2.30;;
9330;SDS011;4704;50.470;12.072;2023-05-16T12:47:43;2.70;;;2.50;;
9330;SDS011;4704;50.470;12.072;2023-05-16T12:50:11;2.22;;;2.03;;
9330;SDS011;4704;50.470;12.072;2023-05-16T12:52:46;2.00;;;1.90;;
9330;SDS011;4704;50.470;12.072;2023-05-16T12:55:14;2.35;;;2.15;;
9330;SDS011;4704;50.470;12.072;2023-05-16T12:57:43;2.50;;;2.30;;
9330;SDS011;4704;50.470;12.072;2023-05-16T13:00:12;2.40;;;2.20;;
9330;SDS011;4704;50.470;12.072;2023-05-16T13:02:39;2.20;;;2.10;;
9330;SDS011;4704;50.470;12.072;2023-05-16T13:05:08;2.22;;;2.10;;
9330;SDS011;4704;50.470;12.072;2023-05-16T13:07:36;2.38;;;2.17;;
9330;SDS011;4704;50.470;12.072;2023-05-16T13:10:05;2.40;;;2.20;;
9330;SDS011;4704;50.470;12.072;2023-05-16T13:12:35;2.10;;;2.00;;
9330;SDS011;4704;50.470;12.072;2023-05-16T13:15:03;2.13;;;1.88;;
9330;SDS011;4704;50.470;12.072;2023-05-16T13:17:31;2.08;;;1.98;;
9330;SDS011;4704;50.470;12.072;2023-05-16T13:19:59;2.42;;;2.22;;
9330;SDS011;4704;50.470;12.072;2023-05-16T13:22:28;2.13;;;1.98;;
9330;SDS011;4704;50.470;12.072;2023-05-16T13:24:55;2.17;;;2.08;;
9330;SDS011;4704;50.470;12.072;2023-05-16T13:27:23;2.00;;;1.90;;
9330;SDS011;4704;50.470;12.072;2023-05-16T13:29:50;2.15;;;1.95;;
9330;SDS011;4704;50.470;12.072;2023-05-16T13:32:17;2.50;;;2.30;;
9330;SDS011;4704;50.470;12.072;2023-05-16T13:34:45;2.50;;;2.38;;
9330;SDS011;4704;50.470;12.072;2023-05-16T13:37:12;2.08;;;1.98;;
9330;SDS011;4704;50.470;12.072;2023-05-16T13:39:41;2.15;;;2.05;;
9330;SDS011;4704;50.470;12.072;2023-05-16T13:42:09;2.00;;;1.90;;
9330;SDS011;4704;50.470;12.072;2023-05-16T13:44:36;2.15;;;2.05;;
9330;SDS011;4704;50.470;12.072;2023-05-16T13:47:03;1.83;;;1.73;;
9330;SDS011;4704;50.470;12.072;2023-05-16T13:49:31;2.13;;;1.98;;
9330;SDS011;4704;50.470;12.072;2023-05-16T13:51:58;2.00;;;1.90;;
9330;SDS011;4704;50.470;12.072;2023-05-16T13:54:26;1.90;;;1.80;;
9330;SDS011;4704;50.470;12.072;2023-05-16T13:56:54;2.20;;;2.05;;
9330;SDS011;4704;50.470;12.072;2023-05-16T13:59:22;2.22;;;2.05;;
9330;SDS011;4704;50.470;12.072;2023-05-16T14:01:49;2.15;;;2.05;;
9330;SDS011;4704;50.470;12.072;2023-05-16T14:04:17;1.98;;;1.88;;
9330;SDS011;4704;50.470;12.072;2023-05-16T14:06:44;2.05;;;1.95;;
9330;SDS011;4704;50.470;12.072;2023-05-16T14:09:13;2.00;;;1.90;;
9330;SDS011;4704;50.470;12.072;2023-05-16T14:11:41;1.90;;;1.80;;
9330;SDS011;4704;50.470;12.072;2023-05-16T14:14:09;2.05;;;1.95;;
9330;SDS011;4704;50.470;12.072;2023-05-16T14:16:37;1.95;;;1.85;;
9330;SDS011;4704;50.470;12.072;2023-05-16T14:19:09;2.05;;;1.92;;
9330;SDS011;4704;50.470;12.072;2023-05-16T14:21:36;2.10;;;2.00;;
9330;SDS011;4704;50.470;12.072;2023-05-16T14:24:04;2.10;;;1.92;;
9330;SDS011;4704;50.470;12.072;2023-05-16T14:26:32;1.80;;;1.70;;
9330;SDS011;4704;50.470;12.072;2023-05-16T14:28:59;2.05;;;1.92;;
9330;SDS011;4704;50.470;12.072;2023-05-16T14:31:28;2.20;;;2.08;;
9330;SDS011;4704;50.470;12.072;2023-05-16T14:33:56;2.05;;;1.95;;
9330;SDS011;4704;50.470;12.072;2023-05-16T14:36:24;1.60;;;1.50;;
9330;SDS011;4704;50.470;12.072;2023-05-16T14:38:51;1.90;;;1.80;;
9330;SDS011;4704;50.470;12.072;2023-05-16T14:41:19;1.80;;;1.70;;
9330;SDS011;4704;50.470;12.072;2023-05-16T14:43:46;1.90;;;1.80;;
9330;SDS011;4704;50.470;12.072;2023-05-16T14:46:14;1.80;;;1.70;;
9330;SDS011;4704;50.470;12.072;2023-05-16T14:48:43;1.90;;;1.80;;
9330;SDS011;4704;50.470;12.072;2023-05-16T14:51:10;1.88;;;1.77;;
9330;SDS011;4704;50.470;12.072;2023-05-16T14:53:37;1.90;;;1.80;;
9330;SDS011;4704;50.470;12.072;2023-05-16T14:56:05;1.92;;;1.83;;
9330;SDS011;4704;50.470;12.072;2023-05-16T14:58:32;2.00;;;1.90;;
9330;SDS011;4704;50.470;12.072;2023-05-16T15:01:00;1.83;;;1.73;;
9330;SDS011;4704;50.470;12.072;2023-05-16T15:03:28;1.90;;;1.75;;
9330;SDS011;4704;50.470;12.072;2023-05-16T15:05:58;1.83;;;1.73;;
9330;SDS011;4704;50.470;12.072;2023-05-16T15:08:26;1.80;;;1.70;;